Time;durP1;ratioP1;P1;durP2;ratioP2;P2;SDS_P1;SDS_P2;PMS_P1;PMS_P2;Temp;Humidity;BMP_temperature;BMP_pressure;BME280_temperature;BME280_humidity;BME280_pressure;Samples;Min_cycle;Max_cycle;Signal;HPM_P1;HPM_P2
2021/07/02 00:00:25;;;;;;;8.75;5.65;;;15.70;88.80;;;;;;2071403;28;20105;-82
2021/07/02 00:01:26;;;;;;;8.80;5.22;;;15.70;88.90;;;;;;2053365;28;20134;-82
2021/07/02 00:02:26;;;;;;;8.82;5.40;;;15.70;88.90;;;;;;2070397;28;20032;-82
2021/07/02 00:03:27;;;;;;;9.02;5.10;;;15.80;89.00;;;;;;2072925;28;20038;-82
2021/07/02 00:04:28;;;;;;;9.68;5.50;;;15.80;89.00;;;;;;2065412;28;20052;-82
2021/07/02 00:05:28;;;;;;;10.07;5.70;;;15.80;89.00;;;;;;2080482;28;20065;-82
2021/07/02 00:06:29;;;;;;;9.45;5.40;;;15.80;89.00;;;;;;2081607;28;20396;-82
2021/07/02 00:07:30;;;;;;;7.65;5.28;;;15.80;89.60;;;;;;2072728;28;20484;-82
2021/07/02 00:08:30;;;;;;;10.27;5.40;;;15.80;89.00;;;;;;2065838;28;20056;-82
2021/07/02 00:09:31;;;;;;;8.73;5.57;;;15.80;89.00;;;;;;2063127;28;20532;-82
2021/07/02 00:10:32;;;;;;;8.40;5.63;;;15.80;89.10;;;;;;2056927;28;20386;-83
2021/07/02 00:11:32;;;;;;;10.95;5.82;;;15.80;89.10;;;;;;2058268;28;20035;-82
2021/07/02 00:12:34;;;;;;;9.48;5.72;;;15.80;89.10;;;;;;2076593;28;20069;-82
2021/07/02 00:13:34;;;;;;;8.38;5.40;;;15.80;89.10;;;;;;2065279;28;20507;-82
2021/07/02 00:14:35;;;;;;;11.30;5.88;;;15.80;89.20;;;;;;2065002;28;20022;-82
2021/07/02 00:15:36;;;;;;;10.95;5.60;;;15.80;89.10;;;;;;2072760;28;20022;-82
2021/07/02 00:16:36;;;;;;;10.13;5.40;;;15.80;89.10;;;;;;2065130;28;20061;-82
2021/07/02 00:17:37;;;;;;;8.15;5.10;;;15.80;89.20;;;;;;2060199;28;20535;-82
2021/07/02 00:18:38;;;;;;;12.35;6.00;;;15.80;89.20;;;;;;2065386;28;20126;-82
2021/07/02 00:19:38;;;;;;;9.20;5.22;;;15.80;89.20;;;;;;2065639;28;20038;-83
2021/07/02 00:20:39;;;;;;;7.47;5.45;;;15.80;89.20;;;;;;2056882;28;20045;-81
2021/07/02 00:21:40;;;;;;;8.55;5.55;;;15.80;89.20;;;;;;2057029;28;20152;-82
2021/07/02 00:22:40;;;;;;;7.68;5.10;;;15.80;89.20;;;;;;2071093;28;20030;-82
2021/07/02 00:23:41;;;;;;;9.15;5.40;;;15.80;89.20;;;;;;2076772;28;20040;-82
2021/07/02 00:24:42;;;;;;;9.25;5.53;;;15.90;89.30;;;;;;2078599;28;20037;-82
2021/07/02 00:25:42;;;;;;;9.38;5.63;;;15.80;89.20;;;;;;2088492;28;20047;-82
2021/07/02 00:26:43;;;;;;;8.77;5.32;;;15.80;89.20;;;;;;2079433;28;20048;-82
2021/07/02 00:27:44;;;;;;;8.18;5.28;;;15.80;89.30;;;;;;2079339;28;20486;-82
2021/07/02 00:28:45;;;;;;;8.15;5.18;;;15.80;89.30;;;;;;2081848;28;20025;-82
2021/07/02 00:29:45;;;;;;;7.22;5.07;;;15.80;89.30;;;;;;2073828;28;20484;-82
2021/07/02 00:30:46;;;;;;;9.60;5.63;;;15.80;89.40;;;;;;2066766;28;20419;-82
2021/07/02 00:31:47;;;;;;;8.02;5.20;;;15.80;89.40;;;;;;2065259;28;20440;-82
2021/07/02 00:32:47;;;;;;;11.00;5.72;;;15.80;89.40;;;;;;2073409;28;20032;-82
2021/07/02 00:33:48;;;;;;;8.18;5.35;;;15.80;89.40;;;;;;2073011;28;20542;-82
2021/07/02 00:34:49;;;;;;;8.45;5.05;;;15.80;89.40;;;;;;2081960;28;20083;-82
2021/07/02 00:35:49;;;;;;;8.32;5.35;;;15.80;89.40;;;;;;2080496;28;20034;-82
2021/07/02 00:36:51;;;;;;;8.43;5.32;;;15.80;89.40;;;;;;2081049;28;20041;-82
2021/07/02 00:37:52;;;;;;;8.80;5.18;;;15.80;89.40;;;;;;2081672;28;20056;-82
2021/07/02 00:38:54;;;;;;;6.57;4.93;;;15.80;89.40;;;;;;2081023;28;20128;-82
2021/07/02 00:39:54;;;;;;;8.38;5.57;;;15.70;89.40;;;;;;2073707;28;20030;-82
2021/07/02 00:40:55;;;;;;;8.65;5.30;;;15.80;89.40;;;;;;2068617;28;20077;-83
2021/07/02 00:41:56;;;;;;;8.32;5.20;;;15.80;89.50;;;;;;2073380;28;20121;-82
2021/07/02 00:42:57;;;;;;;7.65;5.10;;;15.80;89.50;;;;;;2081923;28;20036;-82
2021/07/02 00:43:57;;;;;;;8.48;5.30;;;15.70;89.40;;;;;;2065303;28;20439;-82
2021/07/02 00:44:58;;;;;;;8.63;4.68;;;15.80;89.50;;;;;;2073405;28;20044;-82
2021/07/02 00:45:59;;;;;;;8.18;5.03;;;15.80;89.50;;;;;;2081735;28;20121;-82
2021/07/02 00:47:00;;;;;;;9.05;4.88;;;15.80;89.50;;;;;;2072689;28;20081;-82
2021/07/02 00:48:01;;;;;;;8.98;5.55;;;15.70;89.40;;;;;;2073186;28;20084;-82
2021/07/02 00:49:02;;;;;;;9.18;5.38;;;15.80;89.50;;;;;;2081618;28;20565;-82
2021/07/02 00:50:04;;;;;;;9.43;5.20;;;15.80;90.00;;;;;;2090427;28;20036;-82
2021/07/02 00:51:05;;;;;;;7.63;5.47;;;15.70;89.40;;;;;;2081915;28;20018;-82
2021/07/02 00:52:08;;;;;;;9.02;5.38;;;15.70;89.40;;;;;;2065139;28;20037;-82
2021/07/02 00:53:10;;;;;;;8.65;5.60;;;15.80;89.50;;;;;;2065908;28;20030;-82
2021/07/02 00:54:11;;;;;;;8.77;5.50;;;15.70;89.40;;;;;;2065720;28;20034;-82
2021/07/02 00:55:12;;;;;;;8.40;4.97;;;15.70;89.40;;;;;;2071455;28;20535;-82
2021/07/02 00:56:17;;;;;;;8.23;4.82;;;15.70;89.50;;;;;;2065603;28;20030;-82
2021/07/02 00:57:18;;;;;;;8.80;5.38;;;15.80;89.50;;;;;;2080858;28;20068;-82
2021/07/02 00:58:20;;;;;;;8.63;5.13;;;15.80;89.40;;;;;;2081494;28;20064;-82
2021/07/02 00:59:20;;;;;;;8.13;5.00;;;15.80;89.40;;;;;;2080708;28;20519;-82
2021/07/02 01:00:21;;;;;;;8.27;5.03;;;15.70;89.40;;;;;;2078278;28;20080;-82
2021/07/02 01:01:22;;;;;;;8.98;5.18;;;15.70;89.40;;;;;;2065296;28;20234;-82
2021/07/02 01:02:23;;;;;;;8.15;5.50;;;15.70;89.40;;;;;;2072919;28;20132;-82
2021/07/02 01:03:23;;;;;;;8.30;5.18;;;15.70;89.40;;;;;;2080810;28;20483;-82
2021/07/02 01:04:24;;;;;;;9.77;5.68;;;15.80;89.40;;;;;;2065217;28;20038;-83
2021/07/02 01:05:25;;;;;;;9.38;5.20;;;15.70;89.40;;;;;;2067922;28;20397;-82
2021/07/02 01:06:25;;;;;;;8.38;5.60;;;15.70;89.40;;;;;;2081477;28;20136;-82
2021/07/02 01:07:26;;;;;;;8.48;5.05;;;15.70;89.40;;;;;;2064142;28;20069;-82
2021/07/02 01:08:27;;;;;;;9.80;5.20;;;15.70;89.40;;;;;;2065408;28;20500;-82
2021/07/02 01:09:28;;;;;;;8.80;5.30;;;15.70;89.40;;;;;;2072397;28;20046;-82
2021/07/02 01:10:28;;;;;;;6.97;4.93;;;15.70;89.40;;;;;;2080437;28;20403;-82
2021/07/02 01:11:29;;;;;;;9.50;5.28;;;15.70;89.40;;;;;;2081163;28;20038;-82
2021/07/02 01:12:30;;;;;;;7.88;5.55;;;15.70;89.40;;;;;;2073215;28;20037;-82
2021/07/02 01:13:31;;;;;;;7.70;5.40;;;15.70;89.40;;;;;;2065460;28;20046;-82
2021/07/02 01:14:31;;;;;;;8.68;5.30;;;15.70;89.40;;;;;;2062963;28;20542;-82
2021/07/02 01:15:32;;;;;;;7.90;5.18;;;15.70;89.40;;;;;;2071506;28;20041;-82
2021/07/02 01:16:32;;;;;;;6.55;4.80;;;15.70;89.40;;;;;;2075592;28;20132;-82
2021/07/02 01:17:33;;;;;;;9.60;5.43;;;15.70;89.40;;;;;;2065393;28;20035;-82
2021/07/02 01:18:34;;;;;;;11.52;5.50;;;15.70;89.40;;;;;;2064134;28;20018;-82
2021/07/02 01:19:34;;;;;;;8.10;5.25;;;15.70;89.40;;;;;;2081464;28;20526;-82
2021/07/02 01:20:36;;;;;;;9.23;5.30;;;15.70;89.50;;;;;;2080671;28;20029;-82
2021/07/02 01:21:36;;;;;;;7.95;5.57;;;15.70;89.50;;;;;;2081442;28;20033;-82
2021/07/02 01:22:39;;;;;;;9.60;5.45;;;15.70;89.50;;;;;;2079219;28;20153;-82
2021/07/02 01:23:39;;;;;;;7.85;5.55;;;15.70;89.50;;;;;;2068331;28;20022;-82
2021/07/02 01:24:40;;;;;;;7.70;5.03;;;15.70;90.00;;;;;;2062282;28;20031;-82
2021/07/02 01:25:43;;;;;;;6.97;4.80;;;15.60;89.50;;;;;;2052392;28;20070;-82
2021/07/02 01:26:44;;;;;;;8.70;5.40;;;15.60;89.50;;;;;;2057323;28;20041;-83
2021/07/02 01:27:44;;;;;;;7.65;5.40;;;15.60;89.50;;;;;;2056879;28;20039;-82
2021/07/02 01:28:45;;;;;;;7.88;5.60;;;15.60;89.50;;;;;;2073314;28;20037;-82
2021/07/02 01:29:47;;;;;;;9.02;5.32;;;15.60;90.00;;;;;;2075794;28;20029;-82
2021/07/02 01:30:48;;;;;;;9.05;5.70;;;15.60;89.60;;;;;;2077278;28;20028;-82
2021/07/02 01:31:49;;;;;;;9.68;5.72;;;15.60;89.60;;;;;;2079824;28;20578;-82
2021/07/02 01:32:50;;;;;;;8.85;5.40;;;15.60;90.00;;;;;;2073023;28;20025;-82
2021/07/02 01:33:50;;;;;;;9.63;5.72;;;15.60;89.60;;;;;;2077791;28;20038;-82
2021/07/02 01:34:51;;;;;;;9.50;5.68;;;15.60;89.60;;;;;;2079567;28;20124;-82
2021/07/02 01:35:52;;;;;;;7.38;5.40;;;15.60;89.60;;;;;;2077507;28;20030;-82
2021/07/02 01:36:52;;;;;;;8.55;5.30;;;15.60;89.60;;;;;;2077132;28;20044;-82
2021/07/02 01:37:53;;;;;;;7.07;5.45;;;15.60;89.60;;;;;;2064397;28;20034;-82
2021/07/02 01:42:48;;;;;;;7.60;4.90;;;15.50;89.40;;;;;;2077257;28;20125;-82
2021/07/02 01:43:49;;;;;;;8.77;5.10;;;15.60;89.50;;;;;;2080342;28;20079;-82
2021/07/02 01:44:50;;;;;;;7.90;4.80;;;15.60;89.40;;;;;;2080395;28;20041;-82
2021/07/02 01:45:50;;;;;;;8.68;5.57;;;15.50;89.40;;;;;;2078619;28;20594;-82
2021/07/02 01:46:51;;;;;;;7.43;5.18;;;15.50;89.50;;;;;;2081128;28;20021;-82
2021/07/02 01:47:52;;;;;;;8.38;5.60;;;15.50;90.00;;;;;;2077361;28;20182;-82
2021/07/02 01:48:52;;;;;;;8.48;5.38;;;15.50;89.50;;;;;;2075656;28;20048;-82
2021/07/02 01:49:53;;;;;;;9.10;5.30;;;15.50;89.50;;;;;;2073062;28;20036;-82
2021/07/02 01:50:54;;;;;;;7.88;5.25;;;15.50;89.50;;;;;;2064225;28;20049;-82
2021/07/02 01:51:55;;;;;;;8.27;5.72;;;15.50;89.50;;;;;;2063658;28;20018;-82
2021/07/02 01:52:55;;;;;;;8.55;5.25;;;15.50;89.60;;;;;;2072853;28;20053;-82
2021/07/02 01:53:56;;;;;;;8.07;5.40;;;15.50;89.60;;;;;;2080716;28;20025;-82
2021/07/02 01:54:57;;;;;;;7.40;5.25;;;15.50;89.60;;;;;;2081343;28;20037;-82
2021/07/02 01:55:58;;;;;;;9.27;5.85;;;15.50;89.60;;;;;;2081254;28;20420;-82
2021/07/02 01:56:58;;;;;;;8.55;5.20;;;15.50;89.60;;;;;;2069000;28;20540;-82
2021/07/02 01:57:59;;;;;;;8.93;5.47;;;15.50;89.60;;;;;;2077402;28;20037;-82
2021/07/02 01:58:59;;;;;;;8.73;5.47;;;15.50;89.50;;;;;;2080075;28;20032;-82
2021/07/02 02:00:00;;;;;;;8.13;5.40;;;15.50;89.60;;;;;;2080308;28;20034;-82
2021/07/02 02:01:01;;;;;;;8.32;5.65;;;15.50;89.50;;;;;;2081209;28;20037;-81
2021/07/02 02:02:01;;;;;;;8.82;5.45;;;15.50;89.50;;;;;;2081919;28;20030;-81
2021/07/02 02:03:02;;;;;;;9.88;6.13;;;15.50;89.50;;;;;;2068993;28;20069;-82
2021/07/02 02:04:03;;;;;;;7.78;5.13;;;15.50;89.50;;;;;;2064851;28;20206;-82
2021/07/02 02:05:04;;;;;;;7.72;5.82;;;15.50;89.40;;;;;;2068630;28;20529;-82
2021/07/02 02:06:05;;;;;;;9.18;5.40;;;15.50;89.50;;;;;;2072559;28;20386;-82
2021/07/02 02:07:06;;;;;;;8.82;5.43;;;15.50;89.40;;;;;;2072112;28;20025;-82
2021/07/02 02:08:06;;;;;;;8.77;5.35;;;15.50;89.40;;;;;;2071397;28;20130;-82
2021/07/02 02:09:07;;;;;;;9.60;5.70;;;15.40;89.40;;;;;;2080750;28;20097;-81
2021/07/02 02:10:09;;;;;;;9.18;5.57;;;15.40;89.30;;;;;;2081441;28;20045;-82
2021/07/02 02:11:09;;;;;;;11.52;5.63;;;15.40;89.40;;;;;;2070362;28;20030;-82
2021/07/02 02:12:10;;;;;;;8.65;5.75;;;15.50;89.40;;;;;;2069088;28;20030;-82
2021/07/02 02:13:11;;;;;;;8.18;5.53;;;15.50;89.40;;;;;;2079098;28;20033;-81
2021/07/02 02:14:11;;;;;;;8.32;5.63;;;15.50;89.40;;;;;;2080957;28;20515;-81
2021/07/02 02:15:13;;;;;;;6.85;5.20;;;15.50;89.40;;;;;;2073201;28;20033;-81
2021/07/02 02:16:14;;;;;;;7.68;5.63;;;15.40;89.40;;;;;;2064526;28;20022;-81
2021/07/02 02:17:14;;;;;;;8.68;5.82;;;15.40;89.30;;;;;;2076931;28;20379;-81
2021/07/02 02:18:15;;;;;;;8.57;5.38;;;15.40;89.30;;;;;;2078413;28;20045;-81
2021/07/02 02:19:16;;;;;;;7.70;5.03;;;15.40;89.30;;;;;;2065491;28;20119;-82
2021/07/02 02:20:17;;;;;;;10.65;5.80;;;15.40;89.30;;;;;;2064932;28;20488;-81
2021/07/02 02:21:18;;;;;;;9.10;5.32;;;15.40;89.30;;;;;;2070222;28;20030;-81
2021/07/02 02:22:18;;;;;;;7.57;5.40;;;15.40;89.30;;;;;;2076186;28;20034;-80
2021/07/02 02:23:19;;;;;;;10.95;5.65;;;15.40;89.30;;;;;;2076385;28;20021;-81
2021/07/02 02:24:20;;;;;;;8.63;5.53;;;15.40;89.30;;;;;;2070603;28;20585;-81
2021/07/02 02:25:20;;;;;;;8.60;5.22;;;15.40;89.30;;;;;;2073401;28;20472;-81
2021/07/02 02:26:21;;;;;;;8.02;5.70;;;15.40;89.30;;;;;;2078954;28;20196;-81
2021/07/02 02:27:22;;;;;;;8.32;5.85;;;15.40;89.30;;;;;;2081017;28;20036;-81
2021/07/02 02:28:22;;;;;;;9.65;5.65;;;15.40;89.30;;;;;;2063817;28;20023;-81
2021/07/02 02:29:24;;;;;;;8.60;5.38;;;15.40;89.30;;;;;;2056792;28;20030;-81
2021/07/02 02:30:25;;;;;;;8.40;5.35;;;15.40;89.30;;;;;;2065069;28;20034;-81
2021/07/02 02:31:26;;;;;;;8.93;5.68;;;15.40;89.30;;;;;;2049209;28;20527;-81
2021/07/02 02:32:26;;;;;;;9.60;5.70;;;15.40;89.30;;;;;;2062882;28;20038;-81
2021/07/02 02:33:27;;;;;;;9.07;5.22;;;15.30;89.30;;;;;;2074603;28;20526;-81
2021/07/02 02:34:28;;;;;;;9.48;5.57;;;15.40;89.30;;;;;;2071886;28;20137;-82
2021/07/02 02:35:29;;;;;;;7.35;5.43;;;15.40;89.30;;;;;;2066695;28;20031;-80
2021/07/02 02:36:30;;;;;;;9.15;5.55;;;15.40;89.30;;;;;;2087536;28;20038;-81
2021/07/02 02:37:31;;;;;;;9.52;5.55;;;15.40;89.30;;;;;;2076752;28;20121;-81
2021/07/02 02:38:32;;;;;;;9.88;5.60;;;15.40;89.30;;;;;;2072137;28;20077;-80
2021/07/02 02:39:32;;;;;;;10.63;5.75;;;15.40;89.20;;;;;;2073419;28;20439;-81
2021/07/02 02:40:33;;;;;;;9.35;5.63;;;15.30;89.70;;;;;;2064848;28;20046;-81
2021/07/02 02:41:34;;;;;;;8.45;5.80;;;15.30;89.10;;;;;;2059524;28;20039;-81
2021/07/02 02:42:36;;;;;;;10.00;6.18;;;15.30;89.10;;;;;;2064478;28;20582;-81
2021/07/02 02:43:36;;;;;;;8.50;5.50;;;15.30;89.20;;;;;;2081863;28;20029;-81
2021/07/02 02:44:37;;;;;;;9.65;5.85;;;15.30;89.20;;;;;;2072508;28;20029;-80
2021/07/02 02:45:38;;;;;;;7.95;5.72;;;15.30;89.20;;;;;;2064304;28;20034;-80
2021/07/02 02:46:38;;;;;;;9.38;5.90;;;15.30;89.20;;;;;;2072587;28;20530;-81
2021/07/02 02:47:39;;;;;;;8.75;5.43;;;15.30;89.20;;;;;;2071422;28;20476;-80
2021/07/02 02:48:40;;;;;;;8.80;5.45;;;15.30;89.20;;;;;;2055837;28;20034;-80
2021/07/02 02:49:40;;;;;;;8.82;6.00;;;15.30;89.10;;;;;;2064580;28;20026;-81
2021/07/02 02:50:41;;;;;;;8.57;5.80;;;15.30;89.20;;;;;;2064944;28;20038;-81
2021/07/02 02:51:42;;;;;;;8.73;5.50;;;15.30;89.20;;;;;;2080595;28;20501;-80
2021/07/02 02:52:42;;;;;;;10.10;5.90;;;15.30;89.20;;;;;;2080565;28;20139;-80
2021/07/02 02:53:43;;;;;;;9.68;5.85;;;15.30;89.10;;;;;;2072156;28;20116;-81
2021/07/02 02:54:44;;;;;;;9.73;5.60;;;15.30;89.10;;;;;;2071665;28;20419;-80
2021/07/02 02:55:44;;;;;;;9.90;5.85;;;15.30;89.10;;;;;;2046416;28;20840;-81
2021/07/02 02:57:03;;;;;;;9.20;5.43;;;15.30;89.10;;;;;;2037966;28;20608;-81
2021/07/02 02:58:05;;;;;;;7.82;5.10;;;15.30;89.20;;;;;;2027126;28;20035;-80
2021/07/02 02:59:06;;;;;;;9.07;5.57;;;15.30;89.10;;;;;;2044733;28;20311;-81
2021/07/02 03:00:09;;;;;;;8.68;5.55;;;15.30;89.10;;;;;;2070165;28;20140;-81
2021/07/02 03:01:09;;;;;;;7.97;5.20;;;15.30;89.20;;;;;;2067861;28;20026;-81
2021/07/02 03:02:10;;;;;;;8.30;5.63;;;15.30;89.20;;;;;;2080458;28;20033;-81
2021/07/02 03:03:11;;;;;;;10.32;5.55;;;15.20;89.10;;;;;;2055867;28;20082;-81
2021/07/02 03:04:12;;;;;;;6.93;5.10;;;15.30;89.20;;;;;;2063764;28;20520;-81
2021/07/02 03:05:12;;;;;;;8.93;5.70;;;15.20;89.10;;;;;;2076540;28;20021;-81
2021/07/02 03:06:14;;;;;;;7.95;5.32;;;15.20;89.10;;;;;;2079832;28;20053;-81
2021/07/02 03:07:14;;;;;;;9.15;5.35;;;15.20;89.10;;;;;;2069345;28;20031;-81
2021/07/02 03:08:16;;;;;;;8.68;5.40;;;15.20;89.10;;;;;;2061228;28;20551;-81
2021/07/02 03:09:17;;;;;;;8.10;5.45;;;15.20;89.10;;;;;;2071895;28;20026;-80
2021/07/02 03:10:18;;;;;;;10.30;6.03;;;15.20;89.10;;;;;;2080325;28;20121;-81
2021/07/02 03:11:21;;;;;;;9.13;5.82;;;15.20;89.20;;;;;;2079443;28;20025;-80
2021/07/02 03:12:22;;;;;;;9.40;5.45;;;15.20;89.20;;;;;;2071529;28;20034;-81
2021/07/02 03:13:23;;;;;;;9.18;5.68;;;15.20;89.20;;;;;;2072463;28;20026;-80
2021/07/02 03:14:23;;;;;;;10.00;5.93;;;15.20;89.30;;;;;;2072362;28;20439;-81
2021/07/02 03:15:24;;;;;;;9.63;5.88;;;15.20;89.30;;;;;;2072390;28;20084;-80
2021/07/02 03:16:25;;;;;;;9.90;5.90;;;15.10;89.30;;;;;;2080882;28;20041;-81
2021/07/02 03:17:26;;;;;;;8.40;5.60;;;15.10;89.50;;;;;;2080548;28;20392;-81
2021/07/02 03:18:26;;;;;;;9.02;6.10;;;15.10;89.40;;;;;;2069238;28;20477;-81
2021/07/02 03:19:27;;;;;;;8.75;5.65;;;15.10;89.40;;;;;;2068284;28;20038;-80
2021/07/02 03:20:28;;;;;;;8.95;5.80;;;15.10;89.50;;;;;;2088928;28;20013;-81
2021/07/02 03:21:28;;;;;;;8.30;5.18;;;15.10;89.50;;;;;;2080355;28;20083;-80
2021/07/02 03:22:29;;;;;;;10.07;6.28;;;15.00;89.50;;;;;;2056400;28;20027;-81
2021/07/02 03:23:30;;;;;;;9.55;6.03;;;15.10;89.60;;;;;;2064279;28;20034;-80
2021/07/02 03:24:30;;;;;;;8.45;5.72;;;15.00;89.60;;;;;;2077826;28;20463;-81
2021/07/02 03:25:31;;;;;;;7.82;5.47;;;15.00;89.60;;;;;;2072310;28;20405;-81
2021/07/02 03:26:32;;;;;;;10.45;5.80;;;15.00;89.70;;;;;;2071910;28;20132;-81
2021/07/02 03:27:33;;;;;;;9.85;5.55;;;15.00;89.70;;;;;;2063697;28;20156;-81
2021/07/02 03:28:35;;;;;;;9.32;6.18;;;15.00;89.70;;;;;;2055987;28;20023;-80
2021/07/02 03:29:36;;;;;;;8.52;5.47;;;15.00;89.80;;;;;;2061749;28;20035;-81
2021/07/02 03:30:37;;;;;;;8.57;5.78;;;15.00;89.80;;;;;;2067736;28;20022;-81
2021/07/02 03:31:38;;;;;;;8.80;6.20;;;15.00;90.10;;;;;;2080401;28;20041;-80
2021/07/02 03:32:39;;;;;;;8.80;5.97;;;15.00;89.80;;;;;;2072459;28;20084;-81
2021/07/02 03:33:39;;;;;;;9.52;5.85;;;15.00;89.80;;;;;;2072475;28;20089;-81
2021/07/02 03:34:44;;;;;;;8.73;5.80;;;15.00;89.80;;;;;;2081239;28;20057;-81
2021/07/02 03:35:44;;;;;;;9.15;5.60;;;14.90;89.70;;;;;;2080642;28;20033;-81
2021/07/02 03:36:45;;;;;;;9.07;5.65;;;15.00;89.80;;;;;;2081645;28;20518;-81
2021/07/02 03:37:46;;;;;;;9.65;5.70;;;15.00;89.80;;;;;;2073987;28;20088;-80
2021/07/02 03:38:46;;;;;;;10.32;6.10;;;15.00;89.90;;;;;;2065741;28;20041;-81
2021/07/02 03:39:48;;;;;;;10.48;6.15;;;15.00;89.90;;;;;;2073624;28;20056;-81
2021/07/02 03:40:49;;;;;;;10.80;6.07;;;15.00;89.90;;;;;;2081028;28;20480;-81
2021/07/02 03:41:49;;;;;;;10.57;5.65;;;15.00;89.90;;;;;;2081939;28;20024;-81
2021/07/02 03:42:50;;;;;;;9.93;6.13;;;15.00;89.90;;;;;;2082403;28;20036;-81
2021/07/02 03:43:51;;;;;;;10.18;5.72;;;15.00;89.90;;;;;;2074213;28;20034;-81
2021/07/02 03:44:52;;;;;;;10.45;6.30;;;15.00;89.90;;;;;;2066130;28;20068;-81
2021/07/02 03:45:52;;;;;;;11.10;5.75;;;15.00;90.00;;;;;;2072717;28;20380;-80
2021/07/02 03:46:53;;;;;;;10.63;6.00;;;15.00;89.90;;;;;;2082112;28;20065;-81
2021/07/02 03:47:53;;;;;;;8.65;6.10;;;15.00;89.90;;;;;;2074068;28;20440;-81
2021/07/02 03:48:54;;;;;;;9.82;5.88;;;15.00;89.80;;;;;;2064983;28;20469;-80
2021/07/02 03:49:55;;;;;;;8.82;6.18;;;15.00;89.80;;;;;;2073612;28;20362;-80
2021/07/02 03:50:56;;;;;;;10.52;6.25;;;15.00;89.80;;;;;;2082167;28;20404;-80
2021/07/02 03:51:56;;;;;;;9.75;6.20;;;15.00;89.80;;;;;;2073769;28;20032;-80
2021/07/02 03:52:57;;;;;;;10.07;6.03;;;15.10;89.80;;;;;;2065922;28;20488;-80
2021/07/02 03:53:58;;;;;;;11.02;6.38;;;15.10;89.80;;;;;;2065292;28;20026;-80
2021/07/02 03:54:59;;;;;;;8.48;5.88;;;15.10;89.80;;;;;;2066586;28;20030;-80
2021/07/02 03:56:01;;;;;;;10.32;5.97;;;15.10;89.80;;;;;;2070731;28;20035;-81
2021/07/02 03:57:11;;;;;;;9.65;6.03;;;15.10;89.70;;;;;;2066069;28;20046;-80
2021/07/02 03:58:12;;;;;;;9.70;5.93;;;15.10;89.70;;;;;;2082349;28;20025;-81
2021/07/02 03:59:13;;;;;;;9.63;5.70;;;15.10;89.60;;;;;;2072576;28;20558;-81
2021/07/02 04:00:15;;;;;;;8.27;5.45;;;15.10;89.60;;;;;;2057732;28;20026;-80
2021/07/02 04:01:16;;;;;;;10.27;6.05;;;15.10;89.70;;;;;;2069773;28;20040;-83
2021/07/02 04:02:18;;;;;;;9.90;5.93;;;15.10;89.60;;;;;;2078676;28;20029;-81
2021/07/02 04:03:18;;;;;;;8.82;6.30;;;15.10;89.60;;;;;;2073874;28;20594;-81
2021/07/02 04:04:19;;;;;;;9.50;6.10;;;15.10;89.50;;;;;;2074355;28;20041;-81
2021/07/02 04:05:20;;;;;;;9.30;6.00;;;15.10;89.50;;;;;;2072926;28;20460;-81
2021/07/02 04:06:20;;;;;;;9.05;5.80;;;15.10;89.50;;;;;;2081861;28;20464;-81
2021/07/02 04:07:24;;;;;;;8.60;6.07;;;15.10;89.50;;;;;;2081545;28;20037;-81
2021/07/02 04:08:25;;;;;;;9.52;6.10;;;15.10;89.50;;;;;;2074310;28;20032;-81
2021/07/02 04:09:26;;;;;;;8.55;6.40;;;15.10;89.40;;;;;;2073960;28;20037;-81
2021/07/02 04:10:26;;;;;;;9.35;6.15;;;15.20;89.50;;;;;;2081513;28;20042;-81
2021/07/02 04:11:27;;;;;;;8.52;5.72;;;15.20;89.50;;;;;;2082724;28;20407;-82
2021/07/02 04:12:28;;;;;;;9.52;6.32;;;15.10;89.40;;;;;;2082092;28;20029;-82
2021/07/02 04:13:28;;;;;;;9.98;6.40;;;15.10;89.40;;;;;;2073148;28;20456;-81
2021/07/02 04:14:30;;;;;;;9.05;5.30;;;15.20;89.40;;;;;;2067729;28;20504;-81
2021/07/02 04:15:30;;;;;;;10.10;6.00;;;15.20;89.50;;;;;;2072629;28;20026;-81
2021/07/02 04:16:31;;;;;;;9.43;6.25;;;15.20;89.40;;;;;;2079981;28;20029;-80
2021/07/02 04:17:32;;;;;;;10.93;6.95;;;15.20;89.40;;;;;;2080187;28;20150;-81
2021/07/02 04:18:33;;;;;;;9.15;6.18;;;15.20;89.40;;;;;;2080488;28;20431;-81
2021/07/02 04:19:33;;;;;;;10.52;6.22;;;15.20;89.40;;;;;;2081758;28;20036;-81
2021/07/02 04:20:36;;;;;;;11.13;6.65;;;15.20;89.40;;;;;;2073092;28;20042;-81
2021/07/02 04:21:37;;;;;;;10.75;6.30;;;15.20;89.40;;;;;;2069069;28;20026;-81
2021/07/02 04:22:38;;;;;;;9.75;6.72;;;15.20;89.30;;;;;;2081317;28;20480;-81
2021/07/02 04:23:39;;;;;;;9.18;5.97;;;15.20;89.30;;;;;;2081531;28;20083;-80
2021/07/02 04:24:39;;;;;;;11.52;6.70;;;15.30;89.40;;;;;;2081476;28;20028;-81
2021/07/02 04:25:40;;;;;;;11.43;6.95;;;15.30;89.40;;;;;;2068850;28;20030;-81
2021/07/02 04:26:41;;;;;;;10.57;6.88;;;15.20;89.30;;;;;;2073873;28;20092;-81
2021/07/02 04:27:42;;;;;;;10.88;6.85;;;15.30;89.30;;;;;;2070190;28;20543;-81
2021/07/02 04:28:42;;;;;;;11.18;6.78;;;15.30;89.30;;;;;;2073350;28;20033;-81
2021/07/02 04:29:44;;;;;;;10.45;6.97;;;15.30;89.20;;;;;;2072528;28;20052;-81
2021/07/02 04:30:44;;;;;;;10.45;6.55;;;15.30;89.20;;;;;;2064305;28;20109;-81
2021/07/02 04:31:45;;;;;;;10.13;6.47;;;15.30;89.20;;;;;;2065614;28;20031;-81
2021/07/02 04:32:46;;;;;;;10.00;6.93;;;15.30;89.10;;;;;;2065522;28;20041;-81
2021/07/02 04:33:47;;;;;;;10.75;6.85;;;15.30;89.10;;;;;;2073517;28;20034;-81
2021/07/02 04:34:48;;;;;;;11.23;6.80;;;15.30;89.10;;;;;;2065015;28;20030;-81
2021/07/02 04:35:48;;;;;;;8.35;6.38;;;15.30;89.00;;;;;;2070077;28;20034;-81
2021/07/02 04:36:49;;;;;;;12.20;6.95;;;15.30;89.00;;;;;;2073074;28;20507;-81
2021/07/02 04:37:50;;;;;;;10.30;7.03;;;15.20;89.00;;;;;;2081786;28;20095;-81
2021/07/02 04:38:50;;;;;;;10.05;6.88;;;15.20;89.00;;;;;;2080933;28;20121;-80
2021/07/02 04:39:51;;;;;;;9.80;6.88;;;15.20;89.00;;;;;;2066415;28;20103;-81
2021/07/02 04:40:52;;;;;;;11.73;7.18;;;15.20;89.00;;;;;;2066320;28;20168;-81
2021/07/02 04:41:53;;;;;;;10.23;7.00;;;15.20;89.00;;;;;;2073444;28;20423;-81
2021/07/02 04:42:54;;;;;;;11.65;7.30;;;15.20;89.00;;;;;;2079597;28;20026;-81
2021/07/02 04:43:55;;;;;;;11.98;7.60;;;15.20;89.00;;;;;;2073528;28;20121;-81
2021/07/02 04:44:55;;;;;;;11.38;7.22;;;15.20;88.90;;;;;;2064613;28;20037;-81
2021/07/02 04:45:56;;;;;;;10.68;7.40;;;15.20;88.90;;;;;;2076053;28;20132;-81
2021/07/02 04:46:57;;;;;;;12.25;7.32;;;15.20;88.90;;;;;;2072828;28;20022;-83
2021/07/02 04:47:57;;;;;;;9.88;6.68;;;15.20;88.90;;;;;;2072823;28;20508;-81
2021/07/02 04:48:58;;;;;;;9.45;6.40;;;15.20;88.90;;;;;;2086375;28;20400;-81
2021/07/02 04:50:02;;;;;;;12.00;6.63;;;15.20;88.90;;;;;;2069043;28;20044;-81
2021/07/02 04:51:02;;;;;;;10.98;7.45;;;15.20;88.90;;;;;;2072567;28;20093;-81
2021/07/02 04:52:03;;;;;;;10.25;6.90;;;15.20;88.90;;;;;;2062624;28;20138;-81
2021/07/02 04:53:04;;;;;;;9.32;6.40;;;15.20;89.50;;;;;;2055073;28;20065;-81
2021/07/02 04:54:05;;;;;;;10.88;6.95;;;15.20;89.00;;;;;;2065166;28;20519;-81
2021/07/02 04:55:06;;;;;;;10.82;6.85;;;15.20;88.90;;;;;;2055593;28;20023;-81
2021/07/02 04:56:11;;;;;;;12.25;7.32;;;15.20;88.90;;;;;;2081711;28;20033;-81
2021/07/02 04:57:12;;;;;;;10.45;6.78;;;15.30;89.00;;;;;;2073122;28;20067;-81
2021/07/02 04:58:13;;;;;;;10.02;6.90;;;15.30;88.90;;;;;;2071763;28;20033;-81
2021/07/02 04:59:16;;;;;;;10.63;7.30;;;15.30;88.90;;;;;;2078982;28;20021;-81
2021/07/02 05:00:17;;;;;;;10.82;6.97;;;15.20;88.80;;;;;;2080557;28;20018;-81
2021/07/02 05:01:18;;;;;;;9.40;6.93;;;15.30;88.90;;;;;;2082172;28;20040;-81
2021/07/02 05:02:18;;;;;;;11.43;7.10;;;15.30;88.90;;;;;;2079129;28;20041;-80
2021/07/02 05:03:19;;;;;;;10.57;7.22;;;15.30;88.90;;;;;;2070445;28;20088;-81
2021/07/02 05:04:19;;;;;;;11.02;7.15;;;15.30;88.80;;;;;;2065384;28;20023;-81
2021/07/02 05:05:20;;;;;;;10.27;6.35;;;15.30;88.70;;;;;;2073357;28;20064;-81
2021/07/02 05:06:21;;;;;;;10.25;6.85;;;15.30;88.70;;;;;;2073182;28;20029;-81
2021/07/02 05:07:22;;;;;;;11.02;6.95;;;15.30;88.70;;;;;;2064194;28;20456;-81
2021/07/02 05:08:24;;;;;;;10.60;6.80;;;15.30;88.70;;;;;;2064803;28;20041;-79
2021/07/02 05:09:25;;;;;;;10.18;6.88;;;15.30;88.70;;;;;;2070414;28;20034;-81
2021/07/02 05:10:26;;;;;;;10.95;7.28;;;15.30;88.60;;;;;;2076402;28;20048;-81
2021/07/02 05:11:27;;;;;;;10.70;7.15;;;15.30;88.60;;;;;;2078552;28;20049;-81
2021/07/02 05:12:31;;;;;;;11.68;7.25;;;15.40;88.70;;;;;;2081366;28;20053;-81
2021/07/02 05:13:32;;;;;;;10.27;6.93;;;15.40;88.60;;;;;;2066848;28;20104;-81
2021/07/02 05:14:33;;;;;;;11.02;7.35;;;15.30;88.60;;;;;;2055130;28;20027;-81
2021/07/02 05:15:34;;;;;;;12.60;6.88;;;15.30;88.60;;;;;;2063311;28;20031;-81
2021/07/02 05:16:35;;;;;;;9.40;6.82;;;15.30;88.60;;;;;;2077223;28;20069;-81
2021/07/02 05:17:35;;;;;;;10.15;6.80;;;15.30;88.60;;;;;;2069542;28;20026;-81
2021/07/02 05:18:36;;;;;;;10.40;7.32;;;15.40;88.70;;;;;;2071834;28;20563;-81
2021/07/02 05:19:41;;;;;;;11.40;7.50;;;15.30;88.60;;;;;;2080307;28;20037;-81